Time;durP1;ratioP1;P1;durP2;ratioP2;P2;SDS_P1;SDS_P2;PMS_P1;PMS_P2;Temp;Humidity;BMP_temperature;BMP_pressure;BME280_temperature;BME280_humidity;BME280_pressure;Samples;Min_cycle;Max_cycle;Signal;HPM_P1;HPM_P2
2022/03/24 00:01:34;;;;;;;;;;;9.90;76.50;;;;;;5052003;28;20368;-74
2022/03/24 00:04:00;;;;;;;;;;;9.90;76.30;;;;;;5051653;28;19921;-73
2022/03/24 00:06:26;;;;;;;;;;;9.80;76.40;;;;;;5051399;28;19913;-73
2022/03/24 00:08:51;;;;;;;;;;;9.80;76.50;;;;;;5050291;28;20229;-73
2022/03/24 00:11:20;;;;;;;;;;;9.70;77.00;;;;;;5051700;28;20361;-74
2022/03/24 00:13:48;;;;;;;;;;;9.60;77.00;;;;;;5051527;28;20276;-74
2022/03/24 00:16:15;;;;;;;;;;;9.50;77.30;;;;;;5051632;28;19913;-73
2022/03/24 00:18:41;;;;;;;;;;;9.40;78.00;;;;;;5050110;28;20379;-73
2022/03/24 00:21:09;;;;;;;;;;;9.40;77.40;;;;;;5051611;28;20420;-74
2022/03/24 00:23:35;;;;;;;;;;;9.30;77.30;;;;;;5051410;28;19913;-74
2022/03/24 00:26:01;;;;;;;;;;;9.30;77.60;;;;;;5049980;28;19923;-74
2022/03/24 00:28:26;;;;;;;;;;;9.20;77.60;;;;;;5050170;28;20422;-74
2022/03/24 00:30:52;;;;;;;;;;;9.20;77.60;;;;;;5051509;28;19913;-73
2022/03/24 00:33:18;;;;;;;;;;;9.10;77.60;;;;;;5050530;28;19913;-73
2022/03/24 00:35:43;;;;;;;;;;;9.10;77.70;;;;;;5051966;28;19912;-74
2022/03/24 00:38:09;;;;;;;;;;;9.10;77.70;;;;;;5051260;28;20335;-73
2022/03/24 00:40:34;;;;;;;;;;;9.10;77.60;;;;;;5050187;28;19916;-73
2022/03/24 00:43:00;;;;;;;;;;;9.10;77.50;;;;;;5049953;28;20354;-73
2022/03/24 00:45:26;;;;;;;;;;;9.10;78.10;;;;;;5051598;28;19913;-73
2022/03/24 00:47:51;;;;;;;;;;;9.10;77.50;;;;;;5049863;28;20028;-73
2022/03/24 00:50:17;;;;;;;;;;;9.10;77.50;;;;;;5050013;28;19919;-73
2022/03/24 00:52:44;;;;;;;;;;;9.10;77.50;;;;;;5049970;28;19952;-74
2022/03/24 00:55:12;;;;;;;;;;;9.00;77.70;;;;;;5050261;28;19952;-73
2022/03/24 00:57:39;;;;;;;;;;;9.00;77.80;;;;;;5051355;28;19927;-73
2022/03/24 01:00:05;;;;;;;;;;;9.00;77.60;;;;;;5051309;28;20278;-73
2022/03/24 01:02:31;;;;;;;;;;;9.00;77.70;;;;;;5050829;28;19928;-74
2022/03/24 01:04:56;;;;;;;;;;;9.00;77.90;;;;;;5049679;28;19917;-72
2022/03/24 01:07:23;;;;;;;;;;;9.00;77.80;;;;;;5050050;28;19913;-74
2022/03/24 01:09:48;;;;;;;;;;;8.90;78.20;;;;;;5049714;28;19924;-74
2022/03/24 01:12:14;;;;;;;;;;;8.90;78.10;;;;;;5050982;28;19924;-74
2022/03/24 01:14:39;;;;;;;;;;;8.90;78.10;;;;;;5051197;28;20307;-74
2022/03/24 01:17:07;;;;;;;;;;;8.90;77.80;;;;;;5053458;28;19971;-73
2022/03/24 01:19:32;;;;;;;;;;;8.90;77.60;;;;;;5053389;28;20403;-74
2022/03/24 01:21:58;;;;;;;;;;;9.00;77.60;;;;;;5055063;28;19956;-73
2022/03/24 01:24:24;;;;;;;;;;;8.90;77.60;;;;;;5054656;28;20284;-73
2022/03/24 01:26:49;;;;;;;;;;;8.90;77.40;;;;;;5054768;28;19917;-73
2022/03/24 01:29:15;;;;;;;;;;;8.90;77.40;;;;;;5054566;28;19967;-73
2022/03/24 01:31:42;;;;;;;;;;;8.80;77.50;;;;;;5053207;28;19963;-74
2022/03/24 01:34:09;;;;;;;;;;;8.80;77.50;;;;;;5054644;28;19913;-73
2022/03/24 01:36:35;;;;;;;;;;;8.80;77.50;;;;;;5054278;28;19948;-73
2022/03/24 01:39:00;;;;;;;;;;;8.70;77.50;;;;;;5054378;28;19948;-73
2022/03/24 01:41:26;;;;;;;;;;;8.60;77.60;;;;;;5054557;28;19963;-72
2022/03/24 01:43:51;;;;;;;;;;;8.70;77.80;;;;;;5053011;28;19913;-73
2022/03/24 01:46:21;;;;;;;;;;;8.70;77.60;;;;;;5052889;28;20292;-73
2022/03/24 01:48:47;;;;;;;;;;;8.60;77.60;;;;;;5054228;28;19966;-74
2022/03/24 01:51:13;;;;;;;;;;;8.50;77.90;;;;;;5054161;28;19920;-73
2022/03/24 01:53:39;;;;;;;;;;;8.50;78.20;;;;;;5052890;28;19913;-72
2022/03/24 01:56:04;;;;;;;;;;;8.40;78.30;;;;;;5054086;28;20246;-73
2022/03/24 01:58:31;;;;;;;;;;;8.40;78.40;;;;;;5053055;28;19916;-73
2022/03/24 02:01:17;;;;;;;;;;;8.30;78.60;;;;;;5054099;28;19920;-74
2022/03/24 02:03:44;;;;;;;;;;;8.30;78.50;;;;;;5053773;28;20082;-74
2022/03/24 02:06:09;;;;;;;;;;;8.30;78.90;;;;;;5053769;28;19923;-73
2022/03/24 02:08:35;;;;;;;;;;;8.20;79.00;;;;;;5052533;28;20008;-74
2022/03/24 02:11:01;;;;;;;;;;;8.20;79.10;;;;;;5053738;28;20268;-74
2022/03/24 02:13:27;;;;;;;;;;;8.20;79.40;;;;;;5053844;28;19920;-74
2022/03/24 02:15:52;;;;;;;;;;;8.20;79.50;;;;;;5053918;28;19909;-74
2022/03/24 02:18:18;;;;;;;;;;;8.20;79.30;;;;;;5053582;28;19912;-73
2022/03/24 02:20:45;;;;;;;;;;;8.10;79.50;;;;;;5052193;28;19909;-74
2022/03/24 02:23:12;;;;;;;;;;;8.10;79.50;;;;;;5052464;28;19913;-74
2022/03/24 02:25:40;;;;;;;;;;;8.10;79.60;;;;;;5053473;28;19936;-73
2022/03/24 02:28:05;;;;;;;;;;;8.20;79.50;;;;;;5052549;28;19956;-73
2022/03/24 02:30:31;;;;;;;;;;;8.20;79.40;;;;;;5052138;28;19959;-74
2022/03/24 02:32:56;;;;;;;;;;;8.10;79.40;;;;;;5052181;28;20410;-73
2022/03/24 02:35:22;;;;;;;;;;;8.10;79.30;;;;;;5052091;28;19946;-73
2022/03/24 02:37:48;;;;;;;;;;;8.20;79.50;;;;;;5052024;28;19959;-73
2022/03/24 02:40:14;;;;;;;;;;;8.20;79.30;;;;;;5052008;28;19917;-73
2022/03/24 02:42:40;;;;;;;;;;;8.20;79.10;;;;;;5051972;28;19913;-73
2022/03/24 02:45:07;;;;;;;;;;;8.10;79.30;;;;;;5053053;28;19954;-73
2022/03/24 02:47:33;;;;;;;;;;;8.00;79.50;;;;;;5051833;28;20333;-73
2022/03/24 02:49:59;;;;;;;;;;;7.90;79.50;;;;;;5053102;28;19920;-73
2022/03/24 02:52:24;;;;;;;;;;;7.90;79.70;;;;;;5053353;28;19917;-73
2022/03/24 02:54:50;;;;;;;;;;;7.90;79.70;;;;;;5051642;28;19913;-73
2022/03/24 02:57:16;;;;;;;;;;;7.90;79.60;;;;;;5053220;28;19913;-73
2022/03/24 02:59:42;;;;;;;;;;;7.90;79.40;;;;;;5052993;28;19920;-72
2022/03/24 03:02:13;;;;;;;;;;;7.90;79.50;;;;;;5051525;28;19913;-72
2022/03/24 03:04:39;;;;;;;;;;;7.90;79.50;;;;;;5051212;28;19931;-72
2022/03/24 03:07:05;;;;;;;;;;;8.00;79.50;;;;;;5052885;28;20315;-74
2022/03/24 03:09:32;;;;;;;;;;;8.00;79.50;;;;;;5052658;28;19913;-73
2022/03/24 03:11:58;;;;;;;;;;;8.00;80.10;;;;;;5052478;28;19967;-73
2022/03/24 03:14:24;;;;;;;;;;;8.00;79.40;;;;;;5051334;28;19913;-74
2022/03/24 03:16:50;;;;;;;;;;;8.00;79.50;;;;;;5052721;28;19919;-73
2022/03/24 03:19:18;;;;;;;;;;;8.00;79.50;;;;;;5051280;28;20375;-74
2022/03/24 03:21:49;;;;;;;;;;;8.00;79.60;;;;;;5052581;28;19913;-73
2022/03/24 03:24:15;;;;;;;;;;;8.00;79.90;;;;;;5052491;28;19916;-73
2022/03/24 03:26:41;;;;;;;;;;;8.00;80.10;;;;;;5052379;28;19917;-73
2022/03/24 03:29:07;;;;;;;;;;;8.00;80.20;;;;;;5052295;28;19982;-73
2022/03/24 03:31:34;;;;;;;;;;;8.00;80.20;;;;;;5052512;28;19912;-74
2022/03/24 03:34:01;;;;;;;;;;;8.00;80.20;;;;;;5051088;28;19913;-74
2022/03/24 03:36:27;;;;;;;;;;;8.00;80.40;;;;;;5050964;28;19939;-74
2022/03/24 03:38:52;;;;;;;;;;;7.90;80.40;;;;;;5052361;28;19913;-76
2022/03/24 03:41:21;;;;;;;;;;;7.90;80.60;;;;;;5051124;28;20321;-76
2022/03/24 03:43:47;;;;;;;;;;;7.90;80.70;;;;;;5052485;28;20400;-75
2022/03/24 03:46:13;;;;;;;;;;;7.80;80.70;;;;;;5050901;28;19928;-75
2022/03/24 03:48:38;;;;;;;;;;;7.80;80.80;;;;;;5051945;28;19913;-74
2022/03/24 03:51:05;;;;;;;;;;;7.80;81.10;;;;;;5052028;28;19913;-75
2022/03/24 03:53:32;;;;;;;;;;;7.80;81.10;;;;;;5050705;28;20070;-74
2022/03/24 03:55:58;;;;;;;;;;;7.60;81.60;;;;;;5050675;28;19916;-75
2022/03/24 03:58:23;;;;;;;;;;;7.60;82.30;;;;;;5052040;28;19967;-76
2022/03/24 04:00:56;;;;;;;;;;;7.50;82.70;;;;;;5050753;28;19923;-76
2022/03/24 04:03:25;;;;;;;;;;;7.50;82.90;;;;;;5052031;28;20384;-75
2022/03/24 04:05:52;;;;;;;;;;;7.40;82.70;;;;;;5050482;28;20408;-75
2022/03/24 04:08:17;;;;;;;;;;;7.40;82.80;;;;;;5051931;28;20375;-75
2022/03/24 04:10:43;;;;;;;;;;;7.40;82.70;;;;;;5050589;28;20008;-75
2022/03/24 04:13:10;;;;;;;;;;;7.40;82.60;;;;;;5050288;28;19959;-75
2022/03/24 04:15:36;;;;;;;;;;;7.40;82.70;;;;;;5050508;28;19978;-74
2022/03/24 04:18:01;;;;;;;;;;;7.30;82.90;;;;;;5051567;28;19917;-75
2022/03/24 04:20:27;;;;;;;;;;;7.20;82.90;;;;;;5051961;28;20108;-74
2022/03/24 04:22:53;;;;;;;;;;;7.20;83.30;;;;;;5052062;28;19919;-74
2022/03/24 04:25:22;;;;;;;;;;;7.10;83.50;;;;;;5051563;28;20363;-74
2022/03/24 04:27:48;;;;;;;;;;;7.10;83.40;;;;;;5051905;28;20000;-75
2022/03/24 04:30:14;;;;;;;;;;;7.10;83.50;;;;;;5051545;28;20373;-76
2022/03/24 04:32:41;;;;;;;;;;;7.10;83.70;;;;;;5050528;28;19970;-75
2022/03/24 04:35:07;;;;;;;;;;;7.10;83.80;;;;;;5051631;28;20007;-75
2022/03/24 04:37:33;;;;;;;;;;;7.00;84.20;;;;;;5052202;28;19935;-75
2022/03/24 04:39:59;;;;;;;;;;;6.90;84.20;;;;;;5051591;28;20360;-75
2022/03/24 04:42:24;;;;;;;;;;;7.00;84.20;;;;;;5051968;28;19920;-75
2022/03/24 04:44:50;;;;;;;;;;;6.90;84.50;;;;;;5049950;28;19923;-76
2022/03/24 04:47:15;;;;;;;;;;;6.90;84.80;;;;;;5052219;28;20062;-75
2022/03/24 04:49:44;;;;;;;;;;;6.80;85.10;;;;;;5051115;28;20353;-74
2022/03/24 04:52:10;;;;;;;;;;;6.80;85.30;;;;;;5052748;28;19917;-74
2022/03/24 04:54:35;;;;;;;;;;;6.70;85.60;;;;;;5054454;28;19924;-74
2022/03/24 04:57:01;;;;;;;;;;;6.70;85.50;;;;;;5055585;28;19963;-75
2022/03/24 04:59:27;;;;;;;;;;;6.70;85.90;;;;;;5055542;28;19913;-75
2022/03/24 05:01:53;;;;;;;;;;;6.70;85.90;;;;;;5054250;28;19920;-75
2022/03/24 05:04:18;;;;;;;;;;;6.70;86.00;;;;;;5054998;28;20300;-74
2022/03/24 05:06:44;;;;;;;;;;;6.80;85.90;;;;;;5053744;28;19913;-74
2022/03/24 05:09:09;;;;;;;;;;;7.00;85.60;;;;;;5053681;28;19974;-74
2022/03/24 05:11:35;;;;;;;;;;;7.20;85.40;;;;;;5053882;28;20360;-75
2022/03/24 05:14:01;;;;;;;;;;;7.30;85.10;;;;;;5054875;28;20329;-75
2022/03/24 05:16:27;;;;;;;;;;;7.30;84.70;;;;;;5055045;28;19996;-74
2022/03/24 05:18:53;;;;;;;;;;;7.40;84.80;;;;;;5053572;28;19947;-75
2022/03/24 05:21:19;;;;;;;;;;;7.50;84.70;;;;;;5053665;28;20288;-75
2022/03/24 05:23:45;;;;;;;;;;;7.60;84.30;;;;;;5054761;28;19913;-75
2022/03/24 05:26:10;;;;;;;;;;;7.70;84.00;;;;;;5053223;28;19924;-74
2022/03/24 05:28:36;;;;;;;;;;;7.80;83.80;;;;;;5054524;28;20287;-74
2022/03/24 05:31:02;;;;;;;;;;;7.70;83.90;;;;;;5054732;28;19917;-75
2022/03/24 05:33:27;;;;;;;;;;;7.70;84.10;;;;;;5054480;28;19920;-74
2022/03/24 05:35:53;;;;;;;;;;;7.80;84.00;;;;;;5052959;28;19927;-74
2022/03/24 05:38:18;;;;;;;;;;;7.90;84.50;;;;;;5054379;28;19913;-74
2022/03/24 05:40:44;;;;;;;;;;;8.00;83.60;;;;;;5052927;28;19916;-73
2022/03/24 05:43:10;;;;;;;;;;;7.90;83.90;;;;;;5053031;28;20364;-73
2022/03/24 05:45:36;;;;;;;;;;;7.90;84.10;;;;;;5054113;28;19917;-72
2022/03/24 05:48:02;;;;;;;;;;;7.90;84.00;;;;;;5052986;28;19919;-72
2022/03/24 05:50:29;;;;;;;;;;;7.90;83.90;;;;;;5054179;28;20272;-74
2022/03/24 05:52:55;;;;;;;;;;;8.50;84.50;;;;;;5054822;28;20003;-74
2022/03/24 05:55:23;;;;;;;;;;;8.20;83.70;;;;;;5057633;28;19920;-75
2022/03/24 05:57:49;;;;;;;;;;;8.40;83.40;;;;;;5059995;28;19963;-75
2022/03/24 06:00:15;;;;;;;;;;;8.50;83.10;;;;;;5053054;28;19917;-77
2022/03/24 06:02:43;;;;;;;;;;;8.50;82.60;;;;;;5051617;28;19923;-76
2022/03/24 06:05:12;;;;;;;;;;;8.50;83.20;;;;;;5053910;28;20278;-74
2022/03/24 06:07:38;;;;;;;;;;;8.60;82.90;;;;;;5052766;28;19917;-75
2022/03/24 06:10:04;;;;;;;;;;;8.80;82.80;;;;;;5052733;28;19913;-75
2022/03/24 06:12:31;;;;;;;;;;;8.90;82.30;;;;;;5052730;28;19920;-75
2022/03/24 06:14:57;;;;;;;;;;;9.00;82.10;;;;;;5054127;28;20357;-74
2022/03/24 06:17:23;;;;;;;;;;;9.00;82.10;;;;;;5054177;28;19913;-74
2022/03/24 06:19:49;;;;;;;;;;;9.10;82.30;;;;;;5053671;28;19956;-75
2022/03/24 06:22:15;;;;;;;;;;;9.20;81.80;;;;;;5054142;28;19924;-75
2022/03/24 06:24:41;;;;;;;;;;;9.50;81.30;;;;;;5053662;28;19917;-75
2022/03/24 06:27:07;;;;;;;;;;;9.50;81.00;;;;;;5061546;28;19901;-76
2022/03/24 06:29:32;;;;;;;;;;;9.40;81.10;;;;;;5062813;28;19967;-78
2022/03/24 06:31:58;;;;;;;;;;;9.20;81.30;;;;;;5062657;28;19913;-77
2022/03/24 06:34:25;;;;;;;;;;;9.30;81.80;;;;;;5055852;28;19967;-75
2022/03/24 06:36:50;;;;;;;;;;;9.50;81.80;;;;;;5053602;28;19913;-74
2022/03/24 06:39:16;;;;;;;;;;;9.60;81.20;;;;;;5053476;28;19927;-75
2022/03/24 06:41:42;;;;;;;;;;;9.60;81.20;;;;;;5053661;28;19935;-75
2022/03/24 06:44:08;;;;;;;;;;;9.70;81.10;;;;;;5052729;28;19963;-75
2022/03/24 06:46:35;;;;;;;;;;;9.60;81.10;;;;;;5052249;28;19952;-75
2022/03/24 06:49:01;;;;;;;;;;;9.60;81.50;;;;;;5053174;28;20003;-75
2022/03/24 06:51:30;;;;;;;;;;;9.70;81.10;;;;;;5051616;28;20033;-74
2022/03/24 06:53:55;;;;;;;;;;;9.80;81.30;;;;;;5051663;28;20296;-74
2022/03/24 06:56:21;;;;;;;;;;;9.90;81.30;;;;;;5052931;28;19943;-73
2022/03/24 06:58:46;;;;;;;;;;;9.90;81.10;;;;;;5051644;28;19924;-75
2022/03/24 07:01:12;;;;;;;;;;;10.10;80.60;;;;;;5054949;28;19924;-76
2022/03/24 07:03:37;;;;;;;;;;;10.20;80.40;;;;;;5056924;28;19983;-75
2022/03/24 07:06:04;;;;;;;;;;;10.30;80.20;;;;;;5052651;28;19918;-75
2022/03/24 07:08:33;;;;;;;;;;;10.40;79.70;;;;;;5051813;28;19920;-75
2022/03/24 07:10:58;;;;;;;;;;;10.60;79.40;;;;;;5053942;28;19913;-76
2022/03/24 07:13:24;;;;;;;;;;;10.80;79.30;;;;;;5052907;28;19920;-77
2022/03/24 07:15:50;;;;;;;;;;;11.00;78.30;;;;;;5051163;28;20381;-77
2022/03/24 07:18:15;;;;;;;;;;;11.00;78.40;;;;;;5051531;28;19963;-76
2022/03/24 07:20:42;;;;;;;;;;;11.20;78.30;;;;;;5052612;28;19959;-76
2022/03/24 07:23:08;;;;;;;;;;;11.30;77.30;;;;;;5051318;28;19971;-77
2022/03/24 07:25:36;;;;;;;;;;;11.50;77.10;;;;;;5052804;28;19963;-75
2022/03/24 07:28:02;;;;;;;;;;;11.60;76.20;;;;;;5052359;28;20183;-75
2022/03/24 07:30:27;;;;;;;;;;;11.50;75.70;;;;;;5051180;28;20522;-75
2022/03/24 07:32:58;;;;;;;;;;;11.70;75.80;;;;;;5051113;28;20285;-75
2022/03/24 07:35:24;;;;;;;;;;;11.70;75.30;;;;;;5052455;28;20369;-74
2022/03/24 07:37:51;;;;;;;;;;;11.70;75.10;;;;;;5051064;28;20462;-73
2022/03/24 07:40:18;;;;;;;;;;;11.60;75.30;;;;;;5050934;28;19944;-75
2022/03/24 07:42:49;;;;;;;;;;;11.60;75.30;;;;;;5052976;28;20303;-75
2022/03/24 07:45:14;;;;;;;;;;;11.80;75.20;;;;;;5050913;28;20323;-75
2022/03/24 07:48:00;;;;;;;;;;;11.80;74.90;;;;;;5052470;28;19923;-75
2022/03/24 07:50:26;;;;;;;;;;;12.00;74.60;;;;;;5051896;28;19917;-75
2022/03/24 07:52:51;;;;;;;;;;;12.30;74.40;;;;;;5050862;28;19936;-75
2022/03/24 07:55:18;;;;;;;;;;;12.60;73.60;;;;;;5052326;28;19920;-76
2022/03/24 07:57:44;;;;;;;;;;;12.60;73.40;;;;;;5050929;28;19916;-77
2022/03/24 08:00:10;;;;;;;;;;;12.60;73.10;;;;;;5050743;28;19921;-76
2022/03/24 08:02:43;;;;;;;;;;;12.70;73.00;;;;;;5051691;28;19919;-75
2022/03/24 08:05:11;;;;;;;;;;;12.80;72.70;;;;;;5052022;28;20049;-75
2022/03/24 08:07:37;;;;;;;;;;;12.80;72.60;;;;;;5052195;28;20428;-75
2022/03/24 08:10:03;;;;;;;;;;;12.80;72.80;;;;;;5052085;28;20007;-76
2022/03/24 08:12:28;;;;;;;;;;;12.90;73.20;;;;;;5050619;28;19920;-77
2022/03/24 08:14:54;;;;;;;;;;;13.00;73.10;;;;;;5050666;28;19913;-78
2022/03/24 08:17:20;;;;;;;;;;;12.90;72.10;;;;;;5052086;28;19912;-78
2022/03/24 08:19:45;;;;;;;;;;;12.90;72.40;;;;;;5050513;28;20315;-76
2022/03/24 08:22:11;;;;;;;;;;;13.20;72.40;;;;;;5051964;28;20372;-75
2022/03/24 08:24:36;;;;;;;;;;;13.40;71.30;;;;;;5050303;28;19939;-75
2022/03/24 08:27:02;;;;;;;;;;;13.40;71.50;;;;;;5049672;28;19975;-75
2022/03/24 08:29:28;;;;;;;;;;;13.30;71.30;;;;;;5050592;28;19912;-76
2022/03/24 08:31:53;;;;;;;;;;;13.50;71.20;;;;;;5051686;28;19916;-75
2022/03/24 08:34:19;;;;;;;;;;;13.60;70.30;;;;;;5051976;28;19913;-76
2022/03/24 08:36:44;;;;;;;;;;;13.70;69.30;;;;;;5050250;28;19920;-77
2022/03/24 08:39:10;;;;;;;;;;;14.70;70.30;;;;;;5051646;28;19919;-75
2022/03/24 08:41:35;;;;;;;;;;;13.80;69.50;;;;;;5051539;28;19917;-76
2022/03/24 08:44:01;;;;;;;;;;;13.80;68.80;;;;;;5051478;28;19967;-75
2022/03/24 08:46:27;;;;;;;;;;;13.90;68.70;;;;;;5051536;28;19924;-76
2022/03/24 08:48:53;;;;;;;;;;;13.90;68.70;;;;;;5050041;28;19923;-77
2022/03/24 08:51:19;;;;;;;;;;;13.80;68.60;;;;;;5050357;28;20288;-75
2022/03/24 08:53:45;;;;;;;;;;;13.90;68.40;;;;;;5051362;28;19920;-76
2022/03/24 08:56:10;;;;;;;;;;;13.90;68.00;;;;;;5051804;28;19920;-77
2022/03/24 08:58:36;;;;;;;;;;;14.10;67.40;;;;;;5050425;28;19917;-76
2022/03/24 09:01:01;;;;;;;;;;;14.40;66.80;;;;;;5050247;28;19963;-77
2022/03/24 09:03:27;;;;;;;;;;;14.40;66.80;;;;;;5049799;28;20293;-75
2022/03/24 09:05:53;;;;;;;;;;;14.10;67.60;;;;;;5050152;28;19974;-73
2022/03/24 09:08:18;;;;;;;;;;;14.30;67.80;;;;;;5050046;28;20365;-73
2022/03/24 09:10:47;;;;;;;;;;;14.50;66.70;;;;;;5050908;28;19909;-73
2022/03/24 09:13:12;;;;;;;;;;;14.70;66.80;;;;;;5049641;28;19913;-74
2022/03/24 09:15:38;;;;;;;;;;;14.60;65.80;;;;;;5051137;28;19978;-73
2022/03/24 09:18:04;;;;;;;;;;;14.10;66.60;;;;;;5050931;28;19916;-73
2022/03/24 09:20:30;;;;;;;;;;;14.20;66.20;;;;;;5050869;28;19909;-73
2022/03/24 09:22:55;;;;;;;;;;;14.20;64.60;;;;;;5051168;28;19924;-72
2022/03/24 09:25:21;;;;;;;;;;;14.20;65.10;;;;;;5049458;28;19917;-74
2022/03/24 09:27:46;;;;;;;;;;;14.50;64.40;;;;;;5050947;28;19913;-74
2022/03/24 09:30:14;;;;;;;;;;;14.50;64.10;;;;;;5049517;28;19919;-74
2022/03/24 09:32:40;;;;;;;;;;;14.20;64.30;;;;;;5049601;28;19913;-74
2022/03/24 09:35:05;;;;;;;;;;;14.20;65.50;;;;;;5049410;28;19924;-74
2022/03/24 09:37:33;;;;;;;;;;;14.30;65.30;;;;;;5052657;28;19919;-75
2022/03/24 09:40:00;;;;;;;;;;;14.50;65.20;;;;;;5054617;28;19912;-77
2022/03/24 09:42:27;;;;;;;;;;;14.50;65.00;;;;;;5055457;28;19927;-77
2022/03/24 09:44:55;;;;;;;;;;;14.60;64.20;;;;;;5069427;28;20007;-77
2022/03/24 09:47:21;;;;;;;;;;;14.60;63.30;;;;;;5054144;28;19935;-74
2022/03/24 09:49:47;;;;;;;;;;;15.00;63.10;;;;;;5054345;28;19912;-74
2022/03/24 09:52:13;;;;;;;;;;;14.90;62.30;;;;;;5053438;28;20336;-77
2022/03/24 09:54:41;;;;;;;;;;;14.30;63.00;;;;;;5054650;28;20335;-78
2022/03/24 09:57:07;;;;;;;;;;;14.20;63.80;;;;;;5053444;28;20003;-78
2022/03/24 09:59:35;;;;;;;;;;;14.20;64.50;;;;;;5053511;28;19919;-79
2022/03/24 10:02:01;;;;;;;;;;;14.30;63.90;;;;;;5053006;28;19917;-79
2022/03/24 10:04:27;;;;;;;;;;;13.90;64.40;;;;;;5053671;28;19925;-78
2022/03/24 10:06:59;;;;;;;;;;;13.40;65.30;;;;;;5054306;28;19920;-75
2022/03/24 10:09:34;;;;;;;;;;;13.40;64.80;;;;;;5052743;28;19913;-74
2022/03/24 10:12:00;;;;;;;;;;;13.60;65.20;;;;;;5054111;28;20089;-76
2022/03/24 10:14:26;;;;;;;;;;;13.80;65.00;;;;;;5053882;28;19920;-75
2022/03/24 10:16:51;;;;;;;;;;;13.90;64.20;;;;;;5053864;28;19970;-76
2022/03/24 10:19:17;;;;;;;;;;;13.90;64.40;;;;;;5053601;28;20346;-76
2022/03/24 10:21:44;;;;;;;;;;;13.90;64.20;;;;;;5052444;28;19913;-76
2022/03/24 10:24:14;;;;;;;;;;;13.50;65.20;;;;;;5052256;28;19913;-76
2022/03/24 10:27:03;;;;;;;;;;;13.00;66.90;;;;;;5053671;28;19916;-76
2022/03/24 10:29:30;;;;;;;;;;;12.70;67.30;;;;;;5052282;28;19940;-76
2022/03/24 10:31:59;;;;;;;;;;;12.60;67.90;;;;;;5053952;28;19913;-77
2022/03/24 10:34:28;;;;;;;;;;;12.40;68.50;;;;;;5052181;28;20581;-77
2022/03/24 10:36:54;;;;;;;;;;;12.60;68.50;;;;;;5052251;28;20368;-77
2022/03/24 10:39:23;;;;;;;;;;;12.80;67.40;;;;;;5051889;28;19919;-76
2022/03/24 10:41:49;;;;;;;;;;;12.80;67.10;;;;;;5053427;28;19924;-75
2022/03/24 10:44:15;;;;;;;;;;;12.70;66.80;;;;;;5053415;28;19912;-78
2022/03/24 10:46:43;;;;;;;;;;;13.10;66.60;;;;;;5051995;28;19912;-76
2022/03/24 10:49:16;;;;;;;;;;;13.20;65.70;;;;;;5052404;28;20310;-77
2022/03/24 10:51:43;;;;;;;;;;;13.30;64.60;;;;;;5053412;28;19912;-78
2022/03/24 10:54:22;;;;;;;;;;;13.50;64.20;;;;;;5052968;28;20007;-77
2022/03/24 10:56:50;;;;;;;;;;;13.80;63.10;;;;;;5051763;28;20380;-77
2022/03/24 10:59:16;;;;;;;;;;;13.50;63.20;;;;;;5051521;28;20283;-76
2022/03/24 11:01:42;;;;;;;;;;;13.20;63.90;;;;;;5053055;28;19996;-75
2022/03/24 11:04:08;;;;;;;;;;;12.90;64.60;;;;;;5052650;28;19925;-76
2022/03/24 11:06:34;;;;;;;;;;;13.20;64.70;;;;;;5051550;28;19917;-77
2022/03/24 11:09:00;;;;;;;;;;;13.50;63.60;;;;;;5052643;28;19917;-77
2022/03/24 11:11:27;;;;;;;;;;;13.50;63.70;;;;;;5052996;28;20369;-75
2022/03/24 11:13:59;;;;;;;;;;;13.90;62.50;;;;;;5052723;28;19982;-76
2022/03/24 11:16:26;;;;;;;;;;;13.60;62.80;;;;;;5051688;28;19920;-76
2022/03/24 11:18:53;;;;;;;;;;;12.60;64.40;;;;;;5052961;28;19917;-76
2022/03/24 11:21:22;;;;;;;;;;;12.80;65.50;;;;;;5052803;28;19913;-76
2022/03/24 11:23:49;;;;;;;;;;;13.20;64.50;;;;;;5052666;28;20423;-75
2022/03/24 11:26:15;;;;;;;;;;;13.50;63.20;;;;;;5052759;28;19913;-76
2022/03/24 11:28:41;;;;;;;;;;;13.50;63.50;;;;;;5051277;28;19962;-76
2022/03/24 11:31:11;;;;;;;;;;;13.50;63.80;;;;;;5052468;28;19909;-77
2022/03/24 11:33:41;;;;;;;;;;;13.60;63.20;;;;;;5052353;28;19927;-76
2022/03/24 11:36:07;;;;;;;;;;;13.70;63.20;;;;;;5052092;28;20332;-76
2022/03/24 11:38:33;;;;;;;;;;;13.90;62.80;;;;;;5050829;28;20015;-76
2022/03/24 11:41:03;;;;;;;;;;;13.90;62.10;;;;;;5050681;28;20011;-76
2022/03/24 11:43:29;;;;;;;;;;;13.20;62.70;;;;;;5050832;28;19924;-75
2022/03/24 11:45:59;;;;;;;;;;;13.00;63.30;;;;;;5052252;28;19919;-76
2022/03/24 11:48:32;;;;;;;;;;;13.10;63.60;;;;;;5050756;28;19952;-76
2022/03/24 11:50:57;;;;;;;;;;;12.40;64.60;;;;;;5050533;28;20315;-78
2022/03/24 11:53:23;;;;;;;;;;;11.80;66.00;;;;;;5050599;28;19963;-75
2022/03/24 11:56:03;;;;;;;;;;;11.60;66.20;;;;;;5052150;28;19954;-75
2022/03/24 11:58:29;;;;;;;;;;;11.40;66.60;;;;;;5050686;28;19916;-77
2022/03/24 12:00:56;;;;;;;;;;;11.30;66.90;;;;;;5050927;28;19916;-76
2022/03/24 12:03:39;;;;;;;;;;;11.10;67.30;;;;;;5051584;28;19929;-76
2022/03/24 12:06:05;;;;;;;;;;;10.80;68.20;;;;;;5050307;28;19920;-76
2022/03/24 12:08:42;;;;;;;;;;;10.70;69.10;;;;;;5050296;28;20007;-76
2022/03/24 12:11:34;;;;;;;;;;;10.40;69.40;;;;;;5050235;28;19916;-77
2022/03/24 12:14:01;;;;;;;;;;;10.20;70.00;;;;;;5047280;28;19913;-77
2022/03/24 12:16:27;;;;;;;;;;;10.10;70.00;;;;;;5051611;28;19917;-75
2022/03/24 12:18:53;;;;;;;;;;;9.90;70.20;;;;;;5051679;28;19913;-76
2022/03/24 12:21:29;;;;;;;;;;;9.80;71.00;;;;;;5051571;28;19913;-76
2022/03/24 12:24:30;;;;;;;;;;;9.80;71.30;;;;;;5051589;28;20032;-76
2022/03/24 12:26:56;;;;;;;;;;;9.90;71.10;;;;;;4992643;28;20105;-75
2022/03/24 12:29:22;;;;;;;;;;;10.00;70.60;;;;;;5037633;28;20319;-76
2022/03/24 12:31:55;;;;;;;;;;;10.00;70.00;;;;;;5051499;28;19916;-76
2022/03/24 12:34:23;;;;;;;;;;;10.00;68.80;;;;;;5051331;28;19952;-75
2022/03/24 12:36:49;;;;;;;;;;;9.90;68.30;;;;;;5049885;28;20258;-75
2022/03/24 12:39:34;;;;;;;;;;;9.90;68.50;;;;;;5051344;28;19966;-75
2022/03/24 12:42:04;;;;;;;;;;;9.90;68.30;;;;;;5051529;28;19913;-77
2022/03/24 12:44:50;;;;;;;;;;;9.80;68.90;;;;;;5049921;28;19912;-75
2022/03/24 12:47:36;;;;;;;;;;;10.00;69.00;;;;;;5050007;28;20043;-76
2022/03/24 12:50:19;;;;;;;;;;;10.10;69.30;;;;;;5050513;28;19913;-76
2022/03/24 12:52:49;;;;;;;;;;;10.30;69.00;;;;;;5049946;28;20007;-76
2022/03/24 12:55:22;;;;;;;;;;;10.50;68.60;;;;;;5051417;28;19974;-75
2022/03/24 12:57:58;;;;;;;;;;;10.50;68.00;;;;;;5050317;28;19913;-75
2022/03/24 13:00:27;;;;;;;;;;;10.50;67.60;;;;;;5049851;28;19967;-75
2022/03/24 13:02:53;;;;;;;;;;;10.50;67.40;;;;;;5049628;28;19921;-76
2022/03/24 13:05:26;;;;;;;;;;;10.40;68.00;;;;;;5049775;28;19940;-75
2022/03/24 13:07:53;;;;;;;;;;;10.40;68.50;;;;;;5049934;28;19927;-76
2022/03/24 13:10:24;;;;;;;;;;;10.30;68.70;;;;;;5051060;28;19986;-77
2022/03/24 13:12:52;;;;;;;;;;;10.50;68.80;;;;;;5052209;28;19919;-76
2022/03/24 13:15:19;;;;;;;;;;;10.50;68.80;;;;;;5055231;28;19913;-76
2022/03/24 13:17:50;;;;;;;;;;;10.60;68.50;;;;;;5054041;28;19919;-75
2022/03/24 13:20:16;;;;;;;;;;;10.50;67.70;;;;;;5055185;28;20381;-75
2022/03/24 13:22:41;;;;;;;;;;;10.30;68.10;;;;;;5055487;28;19912;-76
2022/03/24 13:25:10;;;;;;;;;;;10.30;67.90;;;;;;5053938;28;19924;-76
2022/03/24 13:27:47;;;;;;;;;;;10.40;68.00;;;;;;5055221;28;19935;-77
2022/03/24 13:30:16;;;;;;;;;;;10.20;68.20;;;;;;5053377;28;19944;-76
2022/03/24 13:32:43;;;;;;;;;;;10.10;68.60;;;;;;5054472;28;19986;-76
2022/03/24 13:35:10;;;;;;;;;;;9.70;69.60;;;;;;5054617;28;19956;-76
2022/03/24 13:37:36;;;;;;;;;;;9.50;70.30;;;;;;5054688;28;19917;-76
2022/03/24 13:40:03;;;;;;;;;;;9.50;71.00;;;;;;5054428;28;19935;-76
2022/03/24 13:42:28;;;;;;;;;;;9.60;70.80;;;;;;5053083;28;19948;-75
2022/03/24 13:44:55;;;;;;;;;;;9.50;70.70;;;;;;5053156;28;20339;-75
2022/03/24 13:47:23;;;;;;;;;;;9.50;71.00;;;;;;5054397;28;19923;-76
2022/03/24 13:49:52;;;;;;;;;;;9.50;70.60;;;;;;5054301;28;20018;-76
2022/03/24 13:52:33;;;;;;;;;;;9.60;70.20;;;;;;5054434;28;19913;-76
2022/03/24 13:55:05;;;;;;;;;;;9.60;70.30;;;;;;5054338;28;19963;-76
2022/03/24 13:57:31;;;;;;;;;;;9.40;70.50;;;;;;5054462;28;19917;-75
2022/03/24 13:59:56;;;;;;;;;;;9.20;70.80;;;;;;5054100;28;20422;-75
2022/03/24 14:02:23;;;;;;;;;;;9.20;71.10;;;;;;5052531;28;20019;-75
2022/03/24 14:05:05;;;;;;;;;;;9.10;71.30;;;;;;5052508;28;20292;-75
2022/03/24 14:07:31;;;;;;;;;;;8.90;71.50;;;;;;5054450;28;20520;-75
2022/03/24 14:09:58;;;;;;;;;;;8.90;71.90;;;;;;5054382;28;20315;-75
2022/03/24 14:12:25;;;;;;;;;;;8.80;72.30;;;;;;5054370;28;20359;-75
2022/03/24 14:14:51;;;;;;;;;;;8.70;72.60;;;;;;5054056;28;19966;-75
2022/03/24 14:17:25;;;;;;;;;;;8.70;72.60;;;;;;5054288;28;20348;-75
2022/03/24 14:19:57;;;;;;;;;;;8.60;73.00;;;;;;5052589;28;20391;-75
2022/03/24 14:22:25;;;;;;;;;;;8.50;73.30;;;;;;5052575;28;19916;-76
2022/03/24 14:24:51;;;;;;;;;;;8.40;74.00;;;;;;5052664;28;19920;-75